sensor_id;sensor_type;location;lat;lon;timestamp;P1;durP1;ratioP1;P2;durP2;ratioP2
24859;SDS011;12936;52.006;4.350;2024-02-16T00:00:31;6.10;;;2.40;;
24859;SDS011;12936;52.006;4.350;2024-02-16T00:03:03;4.77;;;2.73;;
24859;SDS011;12936;52.006;4.350;2024-02-16T00:05:54;6.32;;;3.00;;
24859;SDS011;12936;52.006;4.350;2024-02-16T00:08:22;8.80;;;4.10;;
24859;SDS011;12936;52.006;4.350;2024-02-16T00:10:53;6.63;;;2.80;;
24859;SDS011;12936;52.006;4.350;2024-02-16T00:13:23;4.33;;;2.53;;
24859;SDS011;12936;52.006;4.350;2024-02-16T00:15:52;4.37;;;2.40;;
24859;SDS011;12936;52.006;4.350;2024-02-16T00:18:23;5.30;;;2.85;;
24859;SDS011;12936;52.006;4.350;2024-02-16T00:20:51;5.07;;;3.03;;
24859;SDS011;12936;52.006;4.350;2024-02-16T00:23:22;8.97;;;2.90;;
24859;SDS011;12936;52.006;4.350;2024-02-16T00:25:52;5.37;;;2.80;;
24859;SDS011;12936;52.006;4.350;2024-02-16T00:28:20;5.43;;;2.90;;
24859;SDS011;12936;52.006;4.350;2024-02-16T00:30:50;4.50;;;3.10;;
24859;SDS011;12936;52.006;4.350;2024-02-16T00:33:19;4.23;;;2.70;;
24859;SDS011;12936;52.006;4.350;2024-02-16T00:35:49;5.27;;;3.13;;
24859;SDS011;12936;52.006;4.350;2024-02-16T00:38:19;13.00;;;3.03;;
24859;SDS011;12936;52.006;4.350;2024-02-16T00:40:49;4.97;;;2.77;;
24859;SDS011;12936;52.006;4.350;2024-02-16T00:43:37;5.47;;;3.07;;
24859;SDS011;12936;52.006;4.350;2024-02-16T00:46:05;4.23;;;2.80;;
24859;SDS011;12936;52.006;4.350;2024-02-16T00:48:34;8.67;;;3.07;;
24859;SDS011;12936;52.006;4.350;2024-02-16T00:51:04;5.00;;;3.43;;
24859;SDS011;12936;52.006;4.350;2024-02-16T00:53:33;5.83;;;3.13;;
24859;SDS011;12936;52.006;4.350;2024-02-16T00:56:03;4.97;;;2.90;;
24859;SDS011;12936;52.006;4.350;2024-02-16T00:58:33;5.43;;;3.10;;
24859;SDS011;12936;52.006;4.350;2024-02-16T01:01:03;7.17;;;3.23;;
24859;SDS011;12936;52.006;4.350;2024-02-16T01:03:33;8.80;;;4.30;;
24859;SDS011;12936;52.006;4.350;2024-02-16T01:06:04;4.03;;;2.95;;
24859;SDS011;12936;52.006;4.350;2024-02-16T01:08:37;5.65;;;3.10;;
24859;SDS011;12936;52.006;4.350;2024-02-16T01:11:05;6.87;;;2.90;;
24859;SDS011;12936;52.006;4.350;2024-02-16T01:13:35;4.90;;;2.90;;
24859;SDS011;12936;52.006;4.350;2024-02-16T01:16:04;5.90;;;3.20;;
24859;SDS011;12936;52.006;4.350;2024-02-16T01:18:33;7.20;;;3.27;;
24859;SDS011;12936;52.006;4.350;2024-02-16T01:21:05;8.80;;;3.13;;
24859;SDS011;12936;52.006;4.350;2024-02-16T01:23:33;5.40;;;3.40;;
24859;SDS011;12936;52.006;4.350;2024-02-16T01:26:07;5.80;;;3.10;;
24859;SDS011;12936;52.006;4.350;2024-02-16T01:28:38;9.03;;;3.00;;
24859;SDS011;12936;52.006;4.350;2024-02-16T01:31:07;6.50;;;3.40;;
24859;SDS011;12936;52.006;4.350;2024-02-16T01:33:36;6.20;;;3.20;;
24859;SDS011;12936;52.006;4.350;2024-02-16T01:36:08;5.00;;;3.10;;
24859;SDS011;12936;52.006;4.350;2024-02-16T01:38:37;10.57;;;3.43;;
24859;SDS011;12936;52.006;4.350;2024-02-16T01:41:12;5.93;;;3.23;;
24859;SDS011;12936;52.006;4.350;2024-02-16T01:43:41;8.13;;;3.17;;
24859;SDS011;12936;52.006;4.350;2024-02-16T01:46:10;5.97;;;3.03;;
24859;SDS011;12936;52.006;4.350;2024-02-16T01:48:40;7.53;;;3.63;;
24859;SDS011;12936;52.006;4.350;2024-02-16T01:51:11;5.57;;;3.37;;
24859;SDS011;12936;52.006;4.350;2024-02-16T01:53:41;6.63;;;3.30;;
24859;SDS011;12936;52.006;4.350;2024-02-16T01:56:11;7.83;;;3.40;;
24859;SDS011;12936;52.006;4.350;2024-02-16T01:58:39;5.50;;;3.20;;
24859;SDS011;12936;52.006;4.350;2024-02-16T02:01:27;6.73;;;3.20;;
24859;SDS011;12936;52.006;4.350;2024-02-16T02:03:55;6.33;;;3.00;;
24859;SDS011;12936;52.006;4.350;2024-02-16T02:06:25;6.80;;;3.33;;
24859;SDS011;12936;52.006;4.350;2024-02-16T02:08:56;7.20;;;3.13;;
24859;SDS011;12936;52.006;4.350;2024-02-16T02:11:25;7.30;;;3.27;;
24859;SDS011;12936;52.006;4.350;2024-02-16T02:13:54;6.60;;;2.87;;
24859;SDS011;12936;52.006;4.350;2024-02-16T02:16:22;9.87;;;3.37;;
24859;SDS011;12936;52.006;4.350;2024-02-16T02:18:54;5.93;;;3.63;;
24859;SDS011;12936;52.006;4.350;2024-02-16T02:21:23;8.47;;;3.37;;
24859;SDS011;12936;52.006;4.350;2024-02-16T02:23:54;5.50;;;2.90;;
24859;SDS011;12936;52.006;4.350;2024-02-16T02:26:22;5.70;;;3.30;;
24859;SDS011;12936;52.006;4.350;2024-02-16T02:28:50;6.90;;;3.67;;
24859;SDS011;12936;52.006;4.350;2024-02-16T02:31:19;5.37;;;3.20;;
24859;SDS011;12936;52.006;4.350;2024-02-16T02:33:49;6.00;;;3.20;;
24859;SDS011;12936;52.006;4.350;2024-02-16T02:36:19;6.83;;;2.93;;
24859;SDS011;12936;52.006;4.350;2024-02-16T02:38:48;5.60;;;3.13;;
24859;SDS011;12936;52.006;4.350;2024-02-16T02:41:18;6.23;;;3.07;;
24859;SDS011;12936;52.006;4.350;2024-02-16T02:43:50;7.63;;;3.17;;
24859;SDS011;12936;52.006;4.350;2024-02-16T02:46:22;7.10;;;3.23;;
24859;SDS011;12936;52.006;4.350;2024-02-16T02:48:51;5.73;;;2.93;;
24859;SDS011;12936;52.006;4.350;2024-02-16T02:51:20;7.77;;;3.57;;
24859;SDS011;12936;52.006;4.350;2024-02-16T02:53:48;7.97;;;3.47;;
24859;SDS011;12936;52.006;4.350;2024-02-16T02:56:19;7.43;;;3.60;;
24859;SDS011;12936;52.006;4.350;2024-02-16T02:58:48;6.03;;;3.73;;
24859;SDS011;12936;52.006;4.350;2024-02-16T03:01:16;5.70;;;3.20;;
24859;SDS011;12936;52.006;4.350;2024-02-16T03:03:46;5.10;;;2.90;;
24859;SDS011;12936;52.006;4.350;2024-02-16T03:06:17;6.80;;;3.40;;
24859;SDS011;12936;52.006;4.350;2024-02-16T03:08:45;6.77;;;3.90;;
24859;SDS011;12936;52.006;4.350;2024-02-16T03:11:14;5.50;;;3.30;;
24859;SDS011;12936;52.006;4.350;2024-02-16T03:13:44;7.43;;;3.10;;
24859;SDS011;12936;52.006;4.350;2024-02-16T03:16:12;5.43;;;3.10;;
24859;SDS011;12936;52.006;4.350;2024-02-16T03:18:41;5.93;;;3.43;;
24859;SDS011;12936;52.006;4.350;2024-02-16T03:21:12;5.93;;;3.40;;
24859;SDS011;12936;52.006;4.350;2024-02-16T03:23:44;4.73;;;3.30;;
24859;SDS011;12936;52.006;4.350;2024-02-16T03:26:15;7.77;;;4.00;;
24859;SDS011;12936;52.006;4.350;2024-02-16T03:28:46;5.17;;;3.60;;
24859;SDS011;12936;52.006;4.350;2024-02-16T03:31:19;12.10;;;3.73;;
24859;SDS011;12936;52.006;4.350;2024-02-16T03:33:48;8.73;;;3.87;;
24859;SDS011;12936;52.006;4.350;2024-02-16T03:36:18;6.40;;;3.70;;
24859;SDS011;12936;52.006;4.350;2024-02-16T03:38:48;6.03;;;3.73;;
24859;SDS011;12936;52.006;4.350;2024-02-16T03:41:19;5.40;;;3.40;;
24859;SDS011;12936;52.006;4.350;2024-02-16T03:43:51;6.67;;;3.60;;
24859;SDS011;12936;52.006;4.350;2024-02-16T03:46:20;5.70;;;3.20;;
24859;SDS011;12936;52.006;4.350;2024-02-16T03:48:48;5.73;;;3.37;;
24859;SDS011;12936;52.006;4.350;2024-02-16T03:51:15;6.70;;;3.80;;
24859;SDS011;12936;52.006;4.350;2024-02-16T03:53:45;8.13;;;4.07;;
24859;SDS011;12936;52.006;4.350;2024-02-16T03:56:18;6.50;;;3.63;;
24859;SDS011;12936;52.006;4.350;2024-02-16T03:58:47;7.43;;;3.87;;
24859;SDS011;12936;52.006;4.350;2024-02-16T04:01:17;5.63;;;3.70;;
24859;SDS011;12936;52.006;4.350;2024-02-16T04:03:48;6.47;;;3.50;;
24859;SDS011;12936;52.006;4.350;2024-02-16T04:06:18;7.90;;;3.77;;
24859;SDS011;12936;52.006;4.350;2024-02-16T04:08:47;5.77;;;3.20;;
24859;SDS011;12936;52.006;4.350;2024-02-16T04:11:18;9.00;;;4.07;;
24859;SDS011;12936;52.006;4.350;2024-02-16T04:13:47;8.63;;;3.80;;
24859;SDS011;12936;52.006;4.350;2024-02-16T04:16:17;7.67;;;3.80;;
24859;SDS011;12936;52.006;4.350;2024-02-16T04:18:51;8.93;;;3.60;;
24859;SDS011;12936;52.006;4.350;2024-02-16T04:21:20;7.13;;;3.70;;
24859;SDS011;12936;52.006;4.350;2024-02-16T04:23:48;8.00;;;3.73;;
24859;SDS011;12936;52.006;4.350;2024-02-16T04:26:17;8.73;;;4.00;;
24859;SDS011;12936;52.006;4.350;2024-02-16T04:28:46;9.40;;;4.50;;
24859;SDS011;12936;52.006;4.350;2024-02-16T04:31:40;9.37;;;4.30;;
24859;SDS011;12936;52.006;4.350;2024-02-16T04:34:13;6.47;;;3.97;;
24859;SDS011;12936;52.006;4.350;2024-02-16T04:36:42;6.53;;;3.97;;
24859;SDS011;12936;52.006;4.350;2024-02-16T04:39:11;7.53;;;3.80;;
24859;SDS011;12936;52.006;4.350;2024-02-16T04:41:44;8.27;;;3.83;;
24859;SDS011;12936;52.006;4.350;2024-02-16T04:44:18;9.40;;;4.00;;
24859;SDS011;12936;52.006;4.350;2024-02-16T04:46:48;7.10;;;4.00;;
24859;SDS011;12936;52.006;4.350;2024-02-16T04:49:21;8.37;;;4.07;;
24859;SDS011;12936;52.006;4.350;2024-02-16T04:51:51;8.93;;;4.23;;
24859;SDS011;12936;52.006;4.350;2024-02-16T04:54:21;9.50;;;4.57;;
24859;SDS011;12936;52.006;4.350;2024-02-16T04:56:49;8.00;;;4.30;;
24859;SDS011;12936;52.006;4.350;2024-02-16T04:59:17;8.80;;;4.07;;
24859;SDS011;12936;52.006;4.350;2024-02-16T05:01:47;6.33;;;4.70;;
24859;SDS011;12936;52.006;4.350;2024-02-16T05:04:16;8.97;;;4.30;;
24859;SDS011;12936;52.006;4.350;2024-02-16T05:06:45;10.33;;;4.83;;
24859;SDS011;12936;52.006;4.350;2024-02-16T05:09:18;9.13;;;4.37;;
24859;SDS011;12936;52.006;4.350;2024-02-16T05:11:48;9.30;;;4.53;;
24859;SDS011;12936;52.006;4.350;2024-02-16T05:14:47;8.03;;;4.63;;
24859;SDS011;12936;52.006;4.350;2024-02-16T05:17:19;7.97;;;4.83;;
24859;SDS011;12936;52.006;4.350;2024-02-16T05:19:49;13.93;;;5.37;;
24859;SDS011;12936;52.006;4.350;2024-02-16T05:22:17;7.37;;;5.00;;
24859;SDS011;12936;52.006;4.350;2024-02-16T05:24:46;12.33;;;5.13;;
24859;SDS011;12936;52.006;4.350;2024-02-16T05:27:16;6.80;;;4.40;;
24859;SDS011;12936;52.006;4.350;2024-02-16T05:29:45;9.60;;;4.80;;
24859;SDS011;12936;52.006;4.350;2024-02-16T05:32:15;10.07;;;4.90;;
24859;SDS011;12936;52.006;4.350;2024-02-16T05:34:45;9.80;;;5.20;;
24859;SDS011;12936;52.006;4.350;2024-02-16T05:37:16;7.20;;;4.80;;
24859;SDS011;12936;52.006;4.350;2024-02-16T05:39:46;8.30;;;4.50;;
24859;SDS011;12936;52.006;4.350;2024-02-16T05:42:23;12.30;;;5.10;;
24859;SDS011;12936;52.006;4.350;2024-02-16T05:44:52;7.67;;;4.60;;
24859;SDS011;12936;52.006;4.350;2024-02-16T05:47:21;9.57;;;5.17;;
24859;SDS011;12936;52.006;4.350;2024-02-16T05:49:55;8.63;;;4.70;;
24859;SDS011;12936;52.006;4.350;2024-02-16T05:52:25;11.90;;;4.43;;
24859;SDS011;12936;52.006;4.350;2024-02-16T05:55:15;8.07;;;4.57;;
24859;SDS011;12936;52.006;4.350;2024-02-16T05:57:45;9.63;;;4.80;;
24859;SDS011;12936;52.006;4.350;2024-02-16T06:00:14;9.70;;;4.90;;
24859;SDS011;12936;52.006;4.350;2024-02-16T06:02:43;6.53;;;4.50;;
24859;SDS011;12936;52.006;4.350;2024-02-16T06:05:16;7.23;;;4.47;;
24859;SDS011;12936;52.006;4.350;2024-02-16T06:08:06;7.63;;;4.53;;
24859;SDS011;12936;52.006;4.350;2024-02-16T06:10:34;8.87;;;5.10;;
24859;SDS011;12936;52.006;4.350;2024-02-16T06:13:03;6.67;;;4.60;;
24859;SDS011;12936;52.006;4.350;2024-02-16T06:15:31;10.10;;;4.43;;
24859;SDS011;12936;52.006;4.350;2024-02-16T06:17:59;8.17;;;4.10;;
24859;SDS011;12936;52.006;4.350;2024-02-16T06:20:31;10.03;;;4.10;;
24859;SDS011;12936;52.006;4.350;2024-02-16T06:22:59;7.00;;;4.33;;
24859;SDS011;12936;52.006;4.350;2024-02-16T06:25:28;9.67;;;4.33;;
24859;SDS011;12936;52.006;4.350;2024-02-16T06:27:56;7.20;;;4.30;;
24859;SDS011;12936;52.006;4.350;2024-02-16T06:30:24;6.87;;;4.27;;
24859;SDS011;12936;52.006;4.350;2024-02-16T06:32:52;8.33;;;4.63;;
24859;SDS011;12936;52.006;4.350;2024-02-16T06:35:21;9.10;;;4.73;;
24859;SDS011;12936;52.006;4.350;2024-02-16T06:37:51;8.23;;;4.43;;
24859;SDS011;12936;52.006;4.350;2024-02-16T06:40:20;9.47;;;4.70;;
24859;SDS011;12936;52.006;4.350;2024-02-16T06:42:48;7.37;;;4.40;;
24859;SDS011;12936;52.006;4.350;2024-02-16T06:45:16;9.80;;;5.20;;
24859;SDS011;12936;52.006;4.350;2024-02-16T06:47:44;11.77;;;4.80;;
24859;SDS011;12936;52.006;4.350;2024-02-16T06:50:13;6.00;;;4.57;;
24859;SDS011;12936;52.006;4.350;2024-02-16T06:52:41;8.37;;;4.27;;
24859;SDS011;12936;52.006;4.350;2024-02-16T06:55:11;10.83;;;5.03;;
24859;SDS011;12936;52.006;4.350;2024-02-16T06:57:41;7.67;;;4.57;;
24859;SDS011;12936;52.006;4.350;2024-02-16T07:00:10;6.17;;;4.03;;
24859;SDS011;12936;52.006;4.350;2024-02-16T07:02:42;6.47;;;4.00;;
24859;SDS011;12936;52.006;4.350;2024-02-16T07:05:11;7.97;;;4.73;;
24859;SDS011;12936;52.006;4.350;2024-02-16T07:07:39;8.73;;;4.70;;
24859;SDS011;12936;52.006;4.350;2024-02-16T07:10:07;6.43;;;4.53;;
24859;SDS011;12936;52.006;4.350;2024-02-16T07:12:41;6.70;;;4.27;;
24859;SDS011;12936;52.006;4.350;2024-02-16T07:15:11;11.30;;;4.97;;
24859;SDS011;12936;52.006;4.350;2024-02-16T07:17:40;6.97;;;4.50;;
24859;SDS011;12936;52.006;4.350;2024-02-16T07:20:09;6.93;;;4.43;;
24859;SDS011;12936;52.006;4.350;2024-02-16T07:22:42;8.00;;;4.97;;
24859;SDS011;12936;52.006;4.350;2024-02-16T07:25:12;9.40;;;5.20;;
24859;SDS011;12936;52.006;4.350;2024-02-16T07:27:42;8.97;;;5.00;;
24859;SDS011;12936;52.006;4.350;2024-02-16T07:30:10;8.93;;;4.50;;
24859;SDS011;12936;52.006;4.350;2024-02-16T07:32:48;6.33;;;4.50;;
24859;SDS011;12936;52.006;4.350;2024-02-16T07:35:19;10.03;;;4.27;;
24859;SDS011;12936;52.006;4.350;2024-02-16T07:37:50;7.40;;;4.83;;
24859;SDS011;12936;52.006;4.350;2024-02-16T07:40:20;8.20;;;4.27;;
24859;SDS011;12936;52.006;4.350;2024-02-16T07:42:52;10.33;;;5.17;;
24859;SDS011;12936;52.006;4.350;2024-02-16T07:45:21;9.47;;;4.60;;
24859;SDS011;12936;52.006;4.350;2024-02-16T07:47:50;10.03;;;4.83;;
24859;SDS011;12936;52.006;4.350;2024-02-16T07:50:19;10.53;;;4.93;;
24859;SDS011;12936;52.006;4.350;2024-02-16T07:52:48;9.17;;;5.03;;
24859;SDS011;12936;52.006;4.350;2024-02-16T07:55:17;8.93;;;4.70;;
24859;SDS011;12936;52.006;4.350;2024-02-16T07:57:47;8.80;;;4.70;;
24859;SDS011;12936;52.006;4.350;2024-02-16T08:00:17;11.23;;;4.70;;
24859;SDS011;12936;52.006;4.350;2024-02-16T08:02:46;7.30;;;5.30;;
24859;SDS011;12936;52.006;4.350;2024-02-16T08:05:15;10.43;;;5.10;;
24859;SDS011;12936;52.006;4.350;2024-02-16T08:07:46;8.00;;;5.90;;
24859;SDS011;12936;52.006;4.350;2024-02-16T08:10:14;6.93;;;4.60;;
24859;SDS011;12936;52.006;4.350;2024-02-16T08:12:47;10.77;;;4.83;;
24859;SDS011;12936;52.006;4.350;2024-02-16T08:15:20;8.33;;;4.57;;
24859;SDS011;12936;52.006;4.350;2024-02-16T08:17:51;9.20;;;4.97;;
24859;SDS011;12936;52.006;4.350;2024-02-16T08:20:20;6.03;;;5.30;;
24859;SDS011;12936;52.006;4.350;2024-02-16T08:22:49;7.13;;;5.17;;
24859;SDS011;12936;52.006;4.350;2024-02-16T08:25:17;13.07;;;5.53;;
24859;SDS011;12936;52.006;4.350;2024-02-16T08:27:45;10.83;;;4.93;;
24859;SDS011;12936;52.006;4.350;2024-02-16T08:30:14;14.13;;;5.73;;
24859;SDS011;12936;52.006;4.350;2024-02-16T08:32:44;9.43;;;4.97;;
24859;SDS011;12936;52.006;4.350;2024-02-16T08:35:12;6.97;;;5.40;;
24859;SDS011;12936;52.006;4.350;2024-02-16T08:37:44;9.23;;;5.30;;
24859;SDS011;12936;52.006;4.350;2024-02-16T08:40:12;11.50;;;5.40;;
24859;SDS011;12936;52.006;4.350;2024-02-16T08:42:41;13.60;;;5.63;;
24859;SDS011;12936;52.006;4.350;2024-02-16T08:45:10;13.07;;;7.30;;
24859;SDS011;12936;52.006;4.350;2024-02-16T08:47:39;8.17;;;5.20;;
24859;SDS011;12936;52.006;4.350;2024-02-16T08:50:12;10.27;;;5.87;;
24859;SDS011;12936;52.006;4.350;2024-02-16T08:52:41;10.00;;;5.70;;
24859;SDS011;12936;52.006;4.350;2024-02-16T08:55:11;9.33;;;4.40;;
24859;SDS011;12936;52.006;4.350;2024-02-16T08:57:39;9.07;;;6.00;;
24859;SDS011;12936;52.006;4.350;2024-02-16T09:00:10;11.17;;;5.90;;
24859;SDS011;12936;52.006;4.350;2024-02-16T09:02:39;12.83;;;5.03;;
24859;SDS011;12936;52.006;4.350;2024-02-16T09:05:08;11.13;;;6.20;;
24859;SDS011;12936;52.006;4.350;2024-02-16T09:07:39;17.57;;;6.83;;
24859;SDS011;12936;52.006;4.350;2024-02-16T09:10:08;13.17;;;7.47;;
24859;SDS011;12936;52.006;4.350;2024-02-16T09:12:36;16.03;;;6.47;;
24859;SDS011;12936;52.006;4.350;2024-02-16T09:15:04;13.93;;;6.90;;
24859;SDS011;12936;52.006;4.350;2024-02-16T09:17:33;12.47;;;7.00;;
24859;SDS011;12936;52.006;4.350;2024-02-16T09:20:02;15.93;;;6.63;;
24859;SDS011;12936;52.006;4.350;2024-02-16T09:22:31;22.73;;;7.80;;
24859;SDS011;12936;52.006;4.350;2024-02-16T09:25:06;15.33;;;6.03;;
24859;SDS011;12936;52.006;4.350;2024-02-16T09:27:36;19.20;;;8.53;;
24859;SDS011;12936;52.006;4.350;2024-02-16T09:30:07;17.37;;;7.50;;
24859;SDS011;12936;52.006;4.350;2024-02-16T09:32:38;21.63;;;8.80;;
24859;SDS011;12936;52.006;4.350;2024-02-16T09:35:07;15.90;;;8.07;;
24859;SDS011;12936;52.006;4.350;2024-02-16T09:37:35;18.17;;;8.60;;
24859;SDS011;12936;52.006;4.350;2024-02-16T09:40:06;19.33;;;9.43;;
24859;SDS011;12936;52.006;4.350;2024-02-16T09:42:37;23.87;;;10.10;;
24859;SDS011;12936;52.006;4.350;2024-02-16T09:45:06;20.93;;;9.57;;
24859;SDS011;12936;52.006;4.350;2024-02-16T09:47:38;33.50;;;12.03;;
24859;SDS011;12936;52.006;4.350;2024-02-16T09:50:13;27.13;;;12.33;;
24859;SDS011;12936;52.006;4.350;2024-02-16T09:52:42;28.33;;;11.30;;
24859;SDS011;12936;52.006;4.350;2024-02-16T09:55:16;23.50;;;10.60;;
24859;SDS011;12936;52.006;4.350;2024-02-16T09:57:45;25.10;;;11.40;;
24859;SDS011;12936;52.006;4.350;2024-02-16T10:00:13;28.97;;;11.87;;
24859;SDS011;12936;52.006;4.350;2024-02-16T10:02:42;24.07;;;11.87;;
24859;SDS011;12936;52.006;4.350;2024-02-16T10:05:15;27.30;;;11.13;;
24859;SDS011;12936;52.006;4.350;2024-02-16T10:07:44;23.80;;;10.67;;
24859;SDS011;12936;52.006;4.350;2024-02-16T10:10:21;22.87;;;9.50;;
24859;SDS011;12936;52.006;4.350;2024-02-16T10:12:50;15.00;;;9.00;;
24859;SDS011;12936;52.006;4.350;2024-02-16T10:15:27;16.60;;;9.03;;
24859;SDS011;12936;52.006;4.350;2024-02-16T10:17:59;15.80;;;8.30;;
24859;SDS011;12936;52.006;4.350;2024-02-16T10:20:28;15.33;;;8.87;;
24859;SDS011;12936;52.006;4.350;2024-02-16T10:23:02;15.57;;;7.57;;
24859;SDS011;12936;52.006;4.350;2024-02-16T10:25:32;15.07;;;7.60;;
24859;SDS011;12936;52.006;4.350;2024-02-16T10:28:03;13.90;;;8.17;;
24859;SDS011;12936;52.006;4.350;2024-02-16T10:30:34;14.43;;;6.93;;
24859;SDS011;12936;52.006;4.350;2024-02-16T10:33:04;14.10;;;7.70;;
24859;SDS011;12936;52.006;4.350;2024-02-16T10:35:33;12.17;;;6.60;;
24859;SDS011;12936;52.006;4.350;2024-02-16T10:38:03;11.23;;;6.87;;
24859;SDS011;12936;52.006;4.350;2024-02-16T10:40:33;17.93;;;7.53;;
24859;SDS011;12936;52.006;4.350;2024-02-16T10:43:06;17.70;;;7.13;;
24859;SDS011;12936;52.006;4.350;2024-02-16T10:45:36;13.33;;;7.20;;
24859;SDS011;12936;52.006;4.350;2024-02-16T10:48:06;12.20;;;6.53;;
24859;SDS011;12936;52.006;4.350;2024-02-16T10:50:35;10.00;;;5.83;;
24859;SDS011;12936;52.006;4.350;2024-02-16T10:53:06;10.43;;;6.97;;
24859;SDS011;12936;52.006;4.350;2024-02-16T10:55:41;11.07;;;7.10;;
24859;SDS011;12936;52.006;4.350;2024-02-16T10:58:10;14.13;;;6.43;;
24859;SDS011;12936;52.006;4.350;2024-02-16T11:00:51;12.07;;;6.27;;
24859;SDS011;12936;52.006;4.350;2024-02-16T11:03:24;10.97;;;6.27;;
24859;SDS011;12936;52.006;4.350;2024-02-16T11:05:54;10.30;;;6.40;;
24859;SDS011;12936;52.006;4.350;2024-02-16T11:08:25;9.23;;;5.90;;
24859;SDS011;12936;52.006;4.350;2024-02-16T11:10:56;9.80;;;6.43;;
24859;SDS011;12936;52.006;4.350;2024-02-16T11:13:25;14.20;;;7.57;;
24859;SDS011;12936;52.006;4.350;2024-02-16T11:15:57;12.30;;;7.33;;
24859;SDS011;12936;52.006;4.350;2024-02-16T11:18:27;12.13;;;6.00;;
24859;SDS011;12936;52.006;4.350;2024-02-16T11:20:59;12.40;;;5.60;;
24859;SDS011;12936;52.006;4.350;2024-02-16T11:23:28;8.90;;;5.27;;
24859;SDS011;12936;52.006;4.350;2024-02-16T11:26:01;10.07;;;5.37;;
24859;SDS011;12936;52.006;4.350;2024-02-16T11:28:33;11.90;;;5.00;;
24859;SDS011;12936;52.006;4.350;2024-02-16T11:31:02;9.37;;;4.70;;
24859;SDS011;12936;52.006;4.350;2024-02-16T11:33:31;8.93;;;4.57;;
24859;SDS011;12936;52.006;4.350;2024-02-16T11:35:59;10.00;;;5.27;;
24859;SDS011;12936;52.006;4.350;2024-02-16T11:38:31;12.03;;;5.20;;
24859;SDS011;12936;52.006;4.350;2024-02-16T11:41:01;9.13;;;4.57;;
24859;SDS011;12936;52.006;4.350;2024-02-16T11:43:30;9.03;;;4.10;;
24859;SDS011;12936;52.006;4.350;2024-02-16T11:46:10;11.47;;;4.57;;
24859;SDS011;12936;52.006;4.350;2024-02-16T11:48:39;8.67;;;4.23;;
24859;SDS011;12936;52.006;4.350;2024-02-16T11:51:08;6.37;;;4.33;;
24859;SDS011;12936;52.006;4.350;2024-02-16T11:53:36;8.10;;;4.70;;
24859;SDS011;12936;52.006;4.350;2024-02-16T11:56:06;11.60;;;5.13;;
24859;SDS011;12936;52.006;4.350;2024-02-16T11:58:34;7.77;;;4.67;;
24859;SDS011;12936;52.006;4.350;2024-02-16T12:01:03;7.77;;;4.53;;
24859;SDS011;12936;52.006;4.350;2024-02-16T12:03:40;8.27;;;4.77;;
24859;SDS011;12936;52.006;4.350;2024-02-16T12:06:09;9.50;;;4.83;;
24859;SDS011;12936;52.006;4.350;2024-02-16T12:08:49;10.47;;;5.20;;
24859;SDS011;12936;52.006;4.350;2024-02-16T12:11:23;12.13;;;6.30;;
24859;SDS011;12936;52.006;4.350;2024-02-16T12:13:51;10.90;;;5.20;;
24859;SDS011;12936;52.006;4.350;2024-02-16T12:16:19;14.73;;;6.20;;
24859;SDS011;12936;52.006;4.350;2024-02-16T12:18:48;10.20;;;5.57;;
24859;SDS011;12936;52.006;4.350;2024-02-16T12:21:17;8.97;;;5.10;;
24859;SDS011;12936;52.006;4.350;2024-02-16T12:23:47;7.80;;;5.43;;
24859;SDS011;12936;52.006;4.350;2024-02-16T12:26:15;10.73;;;5.60;;
24859;SDS011;12936;52.006;4.350;2024-02-16T12:28:45;11.80;;;5.30;;
24859;SDS011;12936;52.006;4.350;2024-02-16T12:31:17;13.27;;;5.07;;
24859;SDS011;12936;52.006;4.350;2024-02-16T12:33:47;9.23;;;5.10;;
24859;SDS011;12936;52.006;4.350;2024-02-16T12:36:15;10.17;;;4.97;;
24859;SDS011;12936;52.006;4.350;2024-02-16T12:38:44;8.80;;;4.07;;
24859;SDS011;12936;52.006;4.350;2024-02-16T12:41:12;8.50;;;4.43;;
24859;SDS011;12936;52.006;4.350;2024-02-16T12:43:40;8.20;;;4.23;;
24859;SDS011;12936;52.006;4.350;2024-02-16T12:46:09;10.50;;;3.77;;
24859;SDS011;12936;52.006;4.350;2024-02-16T12:48:37;8.23;;;4.00;;
24859;SDS011;12936;52.006;4.350;2024-02-16T12:51:06;8.77;;;4.30;;
24859;SDS011;12936;52.006;4.350;2024-02-16T12:53:34;9.60;;;4.23;;
24859;SDS011;12936;52.006;4.350;2024-02-16T12:56:07;9.13;;;5.03;;
24859;SDS011;12936;52.006;4.350;2024-02-16T12:58:35;13.27;;;5.18;;
24859;SDS011;12936;52.006;4.350;2024-02-16T13:01:04;10.37;;;5.00;;
24859;SDS011;12936;52.006;4.350;2024-02-16T13:03:46;7.43;;;4.90;;
24859;SDS011;12936;52.006;4.350;2024-02-16T13:06:14;8.97;;;4.60;;
24859;SDS011;12936;52.006;4.350;2024-02-16T13:08:43;9.67;;;4.90;;
24859;SDS011;12936;52.006;4.350;2024-02-16T13:11:11;11.67;;;5.30;;
24859;SDS011;12936;52.006;4.350;2024-02-16T13:13:40;8.03;;;5.00;;
24859;SDS011;12936;52.006;4.350;2024-02-16T13:16:08;6.47;;;4.87;;
24859;SDS011;12936;52.006;4.350;2024-02-16T13:18:36;8.10;;;4.10;;
24859;SDS011;12936;52.006;4.350;2024-02-16T13:21:06;7.07;;;3.87;;
24859;SDS011;12936;52.006;4.350;2024-02-16T13:23:34;10.77;;;3.90;;
24859;SDS011;12936;52.006;4.350;2024-02-16T13:26:03;6.03;;;4.13;;
24859;SDS011;12936;52.006;4.350;2024-02-16T13:28:32;8.68;;;3.92;;
24859;SDS011;12936;52.006;4.350;2024-02-16T13:31:00;10.67;;;4.77;;
24859;SDS011;12936;52.006;4.350;2024-02-16T13:33:28;10.98;;;5.40;;
24859;SDS011;12936;52.006;4.350;2024-02-16T13:35:57;8.67;;;5.50;;
24859;SDS011;12936;52.006;4.350;2024-02-16T13:38:27;9.03;;;6.03;;
24859;SDS011;12936;52.006;4.350;2024-02-16T13:40:55;8.45;;;5.43;;
24859;SDS011;12936;52.006;4.350;2024-02-16T13:43:26;9.73;;;5.60;;
24859;SDS011;12936;52.006;4.350;2024-02-16T13:45:55;8.47;;;5.53;;
24859;SDS011;12936;52.006;4.350;2024-02-16T13:48:24;6.55;;;5.28;;
24859;SDS011;12936;52.006;4.350;2024-02-16T13:50:53;6.97;;;5.13;;
24859;SDS011;12936;52.006;4.350;2024-02-16T13:53:23;7.85;;;5.22;;
24859;SDS011;12936;52.006;4.350;2024-02-16T13:55:53;8.43;;;5.50;;
24859;SDS011;12936;52.006;4.350;2024-02-16T13:58:21;11.75;;;5.28;;
24859;SDS011;12936;52.006;4.350;2024-02-16T14:00:50;10.40;;;5.18;;
24859;SDS011;12936;52.006;4.350;2024-02-16T14:03:18;9.40;;;4.87;;
24859;SDS011;12936;52.006;4.350;2024-02-16T14:05:46;9.10;;;5.00;;
24859;SDS011;12936;52.006;4.350;2024-02-16T14:08:18;21.83;;;10.93;;
24859;SDS011;12936;52.006;4.350;2024-02-16T14:10:47;10.35;;;5.10;;
24859;SDS011;12936;52.006;4.350;2024-02-16T14:13:16;10.97;;;4.23;;
24859;SDS011;12936;52.006;4.350;2024-02-16T14:15:46;8.60;;;4.75;;
24859;SDS011;12936;52.006;4.350;2024-02-16T14:18:14;7.80;;;4.55;;
24859;SDS011;12936;52.006;4.350;2024-02-16T14:20:59;7.78;;;4.40;;
24859;SDS011;12936;52.006;4.350;2024-02-16T14:23:28;6.63;;;3.90;;
24859;SDS011;12936;52.006;4.350;2024-02-16T14:25:57;8.90;;;4.20;;
24859;SDS011;12936;52.006;4.350;2024-02-16T14:28:26;8.57;;;4.45;;
24859;SDS011;12936;52.006;4.350;2024-02-16T14:30:55;7.63;;;4.47;;
24859;SDS011;12936;52.006;4.350;2024-02-16T14:33:23;7.95;;;3.60;;
24859;SDS011;12936;52.006;4.350;2024-02-16T14:35:59;10.90;;;4.38;;
24859;SDS011;12936;52.006;4.350;2024-02-16T14:38:29;7.13;;;4.00;;
24859;SDS011;12936;52.006;4.350;2024-02-16T14:40:57;5.10;;;3.65;;
24859;SDS011;12936;52.006;4.350;2024-02-16T14:43:31;5.80;;;3.50;;
24859;SDS011;12936;52.006;4.350;2024-02-16T14:45:59;5.90;;;3.77;;
24859;SDS011;12936;52.006;4.350;2024-02-16T14:48:30;6.57;;;3.30;;
24859;SDS011;12936;52.006;4.350;2024-02-16T14:50:59;7.97;;;3.17;;
24859;SDS011;12936;52.006;4.350;2024-02-16T14:53:28;8.55;;;3.55;;
24859;SDS011;12936;52.006;4.350;2024-02-16T14:55:57;6.63;;;3.33;;
24859;SDS011;12936;52.006;4.350;2024-02-16T14:58:25;8.02;;;2.70;;
24859;SDS011;12936;52.006;4.350;2024-02-16T15:00:54;7.07;;;3.27;;